createdAt,value
2023-02-15T00:02:42.735Z,12.90
2023-02-15T00:05:30.229Z,9.63
2023-02-15T00:08:17.742Z,9.67
2023-02-15T00:11:04.246Z,8.83
2023-02-15T00:13:50.723Z,8.97
2023-02-15T00:16:38.246Z,8.87
2023-02-15T00:19:24.795Z,7.77
2023-02-15T00:22:12.342Z,8.50
2023-02-15T00:24:58.887Z,9.30
2023-02-15T00:27:45.410Z,8.37
2023-02-15T00:30:31.893Z,8.43
2023-02-15T00:33:18.413Z,9.33
2023-02-15T00:36:05.900Z,8.77
2023-02-15T00:38:52.384Z,8.57
2023-02-15T00:41:38.895Z,7.00
2023-02-15T00:44:25.380Z,8.30
2023-02-15T00:47:11.867Z,8.03
2023-02-15T00:49:58.364Z,7.03
2023-02-15T00:52:45.902Z,7.23
2023-02-15T00:55:32.418Z,7.50
2023-02-15T00:58:18.905Z,7.03
2023-02-15T01:01:05.406Z,6.80
2023-02-15T01:03:53.001Z,7.47
2023-02-15T01:06:39.537Z,7.70
2023-02-15T01:09:27.018Z,7.37
2023-02-15T01:12:13.516Z,7.27
2023-02-15T01:15:00.094Z,6.87
2023-02-15T01:17:46.736Z,6.77
2023-02-15T01:20:33.316Z,6.67
2023-02-15T01:23:19.851Z,7.40
2023-02-15T01:26:06.325Z,7.27
2023-02-15T01:28:53.857Z,6.63
2023-02-15T01:31:40.515Z,7.17
2023-02-15T01:34:28.129Z,7.03
2023-02-15T01:37:14.622Z,7.53
2023-02-15T01:40:01.148Z,6.37
2023-02-15T01:42:47.670Z,7.23
2023-02-15T01:45:34.162Z,6.83
2023-02-15T01:48:20.670Z,6.10
2023-02-15T01:51:07.154Z,6.17
2023-02-15T01:53:54.669Z,6.07
2023-02-15T01:56:41.164Z,5.43
2023-02-15T01:59:28.697Z,5.63
2023-02-15T02:02:15.248Z,5.93
2023-02-15T02:05:01.771Z,6.33
2023-02-15T02:07:50.295Z,5.87
2023-02-15T02:10:36.777Z,5.83
2023-02-15T02:13:23.272Z,6.37
2023-02-15T02:16:09.874Z,6.27
2023-02-15T02:18:57.419Z,6.10
2023-02-15T02:21:43.982Z,6.37
2023-02-15T02:24:30.471Z,6.43
2023-02-15T02:27:16.972Z,6.60
2023-02-15T02:30:03.552Z,6.03
2023-02-15T02:32:50.081Z,5.50
2023-02-15T02:35:36.560Z,6.27
2023-02-15T02:38:23.124Z,5.20
2023-02-15T02:41:09.602Z,4.90
2023-02-15T02:43:56.121Z,4.80
2023-02-15T02:46:42.636Z,5.20
2023-02-15T02:49:29.147Z,5.90
2023-02-15T02:52:15.619Z,5.57
2023-02-15T02:55:02.152Z,6.07
2023-02-15T02:57:48.678Z,6.33
2023-02-15T03:00:35.189Z,6.00
2023-02-15T03:03:22.731Z,5.17
2023-02-15T03:06:09.281Z,5.00
2023-02-15T03:08:55.810Z,5.10
2023-02-15T03:11:42.322Z,5.07
2023-02-15T03:14:28.808Z,4.93
2023-02-15T03:17:15.327Z,5.40
2023-02-15T03:20:01.855Z,5.40
2023-02-15T03:22:49.392Z,6.37
2023-02-15T03:25:37.942Z,5.77
2023-02-15T03:28:24.505Z,5.47
2023-02-15T03:31:11.095Z,5.37
2023-02-15T03:33:57.650Z,6.13
2023-02-15T03:36:44.167Z,6.00
2023-02-15T03:39:30.719Z,5.80
2023-02-15T03:42:17.264Z,5.03
2023-02-15T03:45:03.817Z,4.70
2023-02-15T03:47:50.304Z,4.23
2023-02-15T03:50:36.830Z,5.13
2023-02-15T03:53:23.296Z,4.70
2023-02-15T03:56:11.875Z,4.73
2023-02-15T03:58:58.369Z,5.17
2023-02-15T04:01:44.888Z,4.97
2023-02-15T04:04:31.403Z,5.43
2023-02-15T04:07:17.946Z,4.63
2023-02-15T04:10:04.426Z,5.03
2023-02-15T04:12:50.946Z,5.83
2023-02-15T04:15:37.466Z,5.40
2023-02-15T04:18:24.010Z,4.90
2023-02-15T04:21:10.483Z,4.93
2023-02-15T04:23:56.990Z,4.97
2023-02-15T04:26:43.461Z,5.87
2023-02-15T04:29:30.971Z,5.77
2023-02-15T04:32:17.545Z,5.47
2023-02-15T04:35:05.068Z,5.43
2023-02-15T04:37:51.625Z,5.37
2023-02-15T04:40:38.178Z,5.47
2023-02-15T04:43:24.705Z,5.67
2023-02-15T04:46:11.253Z,4.70
2023-02-15T04:48:57.784Z,4.83
2023-02-15T04:51:44.284Z,5.30
2023-02-15T04:54:31.766Z,5.37
2023-02-15T04:57:18.237Z,5.00
2023-02-15T05:00:05.754Z,5.17
2023-02-15T05:02:52.267Z,4.90
2023-02-15T05:05:38.815Z,3.83
2023-02-15T05:08:25.331Z,4.77
2023-02-15T05:11:11.881Z,4.57
2023-02-15T05:13:58.393Z,5.07
2023-02-15T05:16:44.942Z,4.90
2023-02-15T05:19:31.440Z,4.43
2023-02-15T05:22:18.926Z,4.10
2023-02-15T05:25:05.422Z,5.13
2023-02-15T05:27:51.939Z,5.07
2023-02-15T05:30:38.673Z,5.17
2023-02-15T05:33:25.299Z,4.97
2023-02-15T05:36:11.872Z,5.10
2023-02-15T05:38:58.370Z,5.07
2023-02-15T05:41:44.897Z,4.70
2023-02-15T05:44:31.426Z,4.73
2023-02-15T05:47:17.947Z,4.20
2023-02-15T05:50:05.510Z,4.47
2023-02-15T05:52:52.581Z,4.70
2023-02-15T05:55:40.200Z,5.33
2023-02-15T05:58:26.730Z,4.60
2023-02-15T06:01:13.263Z,5.47
2023-02-15T06:03:59.742Z,4.70
2023-02-15T06:06:47.239Z,4.97
2023-02-15T06:09:33.765Z,4.77
2023-02-15T06:12:21.594Z,5.27
2023-02-15T06:15:08.168Z,5.27
2023-02-15T06:17:54.703Z,5.23
2023-02-15T06:20:41.266Z,4.77
2023-02-15T06:23:28.121Z,5.00
2023-02-15T06:26:14.648Z,5.17
2023-02-15T06:29:01.154Z,4.27
2023-02-15T06:31:49.802Z,4.93
2023-02-15T06:34:36.360Z,5.03
2023-02-15T06:37:22.834Z,4.23
2023-02-15T06:40:09.346Z,4.30
2023-02-15T06:42:55.872Z,4.20
2023-02-15T06:45:42.432Z,3.77
2023-02-15T06:48:30.983Z,4.47
2023-02-15T06:51:18.464Z,4.33
2023-02-15T06:54:05.019Z,4.33
2023-02-15T06:56:51.496Z,4.33
2023-02-15T06:59:38.035Z,5.17
2023-02-15T07:02:24.554Z,4.70
2023-02-15T07:05:11.129Z,5.20
2023-02-15T07:07:58.714Z,4.93
2023-02-15T07:10:45.246Z,5.57
2023-02-15T07:13:31.774Z,5.23
2023-02-15T07:16:18.387Z,6.67
2023-02-15T07:19:05.246Z,7.73
2023-02-15T07:21:51.784Z,6.60
2023-02-15T07:24:38.306Z,7.37
2023-02-15T07:27:24.822Z,7.10
2023-02-15T07:30:12.386Z,7.10
2023-02-15T07:32:58.963Z,6.47
2023-02-15T07:35:45.524Z,6.47
2023-02-15T07:38:32.003Z,7.00
2023-02-15T07:41:19.558Z,6.50
2023-02-15T07:44:06.046Z,6.77
2023-02-15T07:46:52.622Z,7.93
2023-02-15T07:49:40.191Z,6.60
2023-02-15T07:52:27.741Z,7.30
2023-02-15T07:55:14.297Z,7.60
2023-02-15T07:58:00.786Z,7.63
2023-02-15T08:00:47.331Z,7.63
2023-02-15T08:03:33.890Z,6.93
2023-02-15T08:06:20.418Z,7.00
2023-02-15T08:09:06.907Z,6.80
2023-02-15T08:11:53.447Z,6.75
2023-02-15T08:14:41.994Z,7.20
2023-02-15T08:17:28.552Z,7.80
2023-02-15T08:20:15.068Z,6.17
2023-02-15T08:23:01.579Z,6.73
2023-02-15T08:25:48.082Z,8.50
2023-02-15T08:28:34.639Z,8.03
2023-02-15T08:31:21.634Z,8.67
2023-02-15T08:34:08.224Z,8.47
2023-02-15T08:36:55.698Z,8.80
2023-02-15T08:39:42.196Z,11.10
2023-02-15T08:42:29.709Z,10.83
2023-02-15T08:45:18.276Z,10.47
2023-02-15T08:48:04.807Z,11.90
2023-02-15T08:50:51.334Z,11.20
2023-02-15T08:53:37.815Z,12.10
2023-02-15T08:56:24.426Z,11.10
2023-02-15T08:59:10.970Z,11.80
2023-02-15T09:01:57.599Z,12.93
2023-02-15T09:04:44.218Z,12.50
2023-02-15T09:07:31.765Z,13.53
2023-02-15T09:10:18.402Z,13.77
2023-02-15T09:13:04.939Z,14.07
2023-02-15T09:15:51.500Z,13.83
2023-02-15T09:18:38.007Z,13.87
2023-02-15T09:21:24.530Z,13.53
2023-02-15T09:24:13.227Z,14.10
2023-02-15T09:26:59.796Z,14.20
2023-02-15T09:29:46.311Z,14.07
2023-02-15T09:32:32.822Z,15.50
2023-02-15T09:35:20.295Z,13.80
2023-02-15T09:38:06.860Z,15.57
2023-02-15T09:40:53.389Z,14.17
2023-02-15T09:43:39.910Z,13.50
2023-02-15T09:46:27.396Z,14.37
2023-02-15T09:49:13.951Z,13.67
2023-02-15T09:52:00.479Z,13.40
2023-02-15T09:54:47.034Z,14.40
2023-02-15T09:57:33.570Z,13.80
2023-02-15T10:00:20.146Z,13.03
2023-02-15T10:03:06.634Z,13.27
2023-02-15T10:05:53.158Z,13.53
2023-02-15T10:08:39.636Z,13.43
2023-02-15T10:11:26.135Z,13.27
2023-02-15T10:14:13.686Z,14.07
2023-02-15T10:17:06.599Z,12.80
2023-02-15T10:19:53.128Z,13.87
2023-02-15T10:22:39.716Z,13.27
2023-02-15T10:25:26.607Z,14.93
2023-02-15T10:28:15.145Z,13.50
2023-02-15T10:31:02.970Z,13.27
2023-02-15T10:33:49.715Z,13.33
2023-02-15T10:36:38.261Z,13.40
2023-02-15T10:39:26.794Z,13.60
2023-02-15T10:42:14.319Z,15.20
2023-02-15T10:47:49.245Z,14.47
2023-02-15T10:50:36.790Z,13.73
2023-02-15T10:53:23.303Z,14.30
2023-02-15T10:56:09.832Z,14.93
2023-02-15T10:58:56.370Z,14.27
2023-02-15T11:01:42.938Z,14.67
2023-02-15T11:04:29.610Z,14.13
2023-02-15T11:07:16.156Z,14.60
2023-02-15T11:10:02.652Z,14.70
2023-02-15T11:12:49.192Z,13.90
2023-02-15T11:15:35.742Z,15.10
2023-02-15T11:18:22.308Z,15.00
2023-02-15T11:21:11.902Z,16.60
2023-02-15T11:23:59.454Z,14.77
2023-02-15T11:26:45.942Z,14.23
2023-02-15T11:29:32.449Z,13.87
2023-02-15T11:32:19.024Z,14.83
2023-02-15T11:35:06.619Z,14.57
2023-02-15T11:37:54.187Z,14.57
2023-02-15T11:40:41.710Z,14.97
2023-02-15T11:43:28.231Z,15.17
2023-02-15T11:46:14.797Z,15.37
2023-02-15T11:49:01.349Z,15.27
2023-02-15T11:51:47.990Z,14.67
2023-02-15T11:54:35.503Z,15.33
2023-02-15T11:57:23.126Z,15.17
2023-02-15T12:00:09.754Z,14.87
2023-02-15T12:02:56.350Z,14.07
2023-02-15T12:05:42.877Z,14.50
2023-02-15T12:08:29.427Z,13.77
2023-02-15T12:11:15.911Z,15.27
2023-02-15T12:14:04.423Z,14.63
2023-02-15T12:16:51.986Z,14.13
2023-02-15T12:19:38.565Z,15.30
2023-02-15T12:22:25.049Z,14.10
2023-02-15T12:25:11.668Z,14.23
2023-02-15T12:27:58.183Z,15.63
2023-02-15T12:30:44.761Z,14.00
2023-02-15T12:33:32.325Z,14.47
2023-02-15T12:36:19.194Z,13.93
2023-02-15T12:39:05.660Z,14.43
2023-02-15T12:41:52.204Z,14.27
2023-02-15T12:44:38.734Z,14.07
2023-02-15T12:47:28.929Z,14.43
2023-02-15T12:50:15.724Z,13.63
2023-02-15T12:53:02.249Z,13.63
2023-02-15T12:55:48.781Z,14.17
2023-02-15T12:58:35.287Z,13.67
2023-02-15T13:01:21.941Z,12.90
2023-02-15T13:04:08.504Z,13.47
2023-02-15T13:06:55.033Z,13.70
2023-02-15T13:09:41.510Z,12.97
2023-02-15T13:12:30.042Z,12.47
2023-02-15T13:15:16.554Z,14.03
2023-02-15T13:18:03.191Z,14.23
2023-02-15T13:20:49.666Z,14.23
2023-02-15T13:23:36.510Z,13.80
2023-02-15T13:26:23.115Z,12.97
2023-02-15T13:29:09.630Z,13.87
2023-02-15T13:31:56.312Z,12.47
2023-02-15T13:34:42.865Z,13.97
2023-02-15T13:37:29.365Z,13.90
2023-02-15T13:40:15.995Z,13.40
2023-02-15T13:43:02.511Z,12.90
2023-02-15T13:45:49.079Z,13.50
2023-02-15T13:48:46.888Z,13.70
2023-02-15T13:51:37.023Z,12.67
2023-02-15T13:54:23.542Z,12.47
2023-02-15T13:57:10.100Z,13.40
2023-02-15T13:59:56.570Z,13.50
2023-02-15T14:02:43.070Z,13.03
2023-02-15T14:05:30.769Z,12.97
2023-02-15T14:08:17.381Z,12.83
2023-02-15T14:11:04.225Z,13.67
2023-02-15T14:13:50.908Z,13.17
2023-02-15T14:16:37.618Z,13.87
2023-02-15T14:19:24.277Z,13.03
2023-02-15T14:22:12.718Z,13.37
2023-02-15T14:25:01.158Z,13.17
2023-02-15T14:27:47.705Z,13.27
2023-02-15T14:30:34.254Z,13.97
2023-02-15T14:33:20.767Z,12.03
2023-02-15T14:36:08.309Z,11.60
2023-02-15T14:38:54.852Z,11.27
2023-02-15T14:41:41.377Z,11.80
2023-02-15T14:44:27.898Z,11.50
2023-02-15T14:47:14.410Z,11.43
2023-02-15T14:50:00.980Z,11.60
2023-02-15T14:52:47.511Z,11.53
2023-02-15T14:55:34.175Z,12.17
2023-02-15T14:58:20.658Z,11.53
2023-02-15T15:01:07.237Z,10.87
2023-02-15T15:03:53.760Z,11.97
2023-02-15T15:06:40.274Z,12.07
2023-02-15T15:09:28.830Z,12.70
2023-02-15T15:12:15.337Z,12.17
2023-02-15T15:15:02.819Z,11.00
2023-02-15T15:17:49.310Z,11.13
2023-02-15T15:20:35.796Z,11.57
2023-02-15T15:23:22.348Z,11.00
2023-02-15T15:26:08.818Z,10.83
2023-02-15T15:28:55.372Z,12.17
2023-02-15T15:31:42.117Z,10.83
2023-02-15T15:34:28.692Z,11.57
2023-02-15T15:37:15.199Z,11.57
2023-02-15T15:40:01.774Z,11.93
2023-02-15T15:42:48.283Z,11.10
2023-02-15T15:45:34.797Z,12.30
2023-02-15T15:48:21.277Z,13.10
2023-02-15T15:51:07.806Z,12.23
2023-02-15T15:53:54.390Z,11.83
2023-02-15T15:56:40.918Z,12.13
2023-02-15T15:59:28.458Z,12.43
2023-02-15T16:02:15.943Z,14.53
2023-02-15T16:05:02.484Z,14.40
2023-02-15T16:07:48.970Z,13.47
2023-02-15T16:10:35.474Z,13.77
2023-02-15T16:13:22.003Z,13.77
2023-02-15T16:16:08.537Z,12.83
2023-02-15T16:18:55.058Z,13.07
2023-02-15T16:21:42.670Z,12.40
2023-02-15T16:24:29.194Z,12.70
2023-02-15T16:27:15.706Z,13.23
2023-02-15T16:30:02.303Z,13.17
2023-02-15T16:32:48.864Z,13.60
2023-02-15T16:35:35.357Z,16.10
2023-02-15T16:38:21.901Z,15.53
2023-02-15T16:41:10.865Z,14.47
2023-02-15T16:43:57.378Z,13.80
2023-02-15T16:46:43.948Z,14.00
2023-02-15T16:49:30.528Z,13.20
2023-02-15T16:52:17.079Z,12.93
2023-02-15T16:55:03.590Z,12.17
2023-02-15T16:57:48.749Z,13.20
2023-02-15T17:00:37.564Z,13.30
2023-02-15T17:03:24.111Z,17.57
2023-02-15T17:06:11.671Z,14.57
2023-02-15T17:08:58.194Z,16.60
2023-02-15T17:11:44.855Z,19.90
2023-02-15T17:14:31.367Z,17.33
2023-02-15T17:17:17.990Z,18.73
2023-02-15T17:20:05.496Z,21.87
2023-02-15T17:22:52.015Z,18.90
2023-02-15T17:25:38.531Z,18.90
2023-02-15T17:28:25.064Z,18.23
2023-02-15T17:31:11.769Z,19.17
2023-02-15T17:33:58.445Z,17.83
2023-02-15T17:36:44.991Z,22.67
2023-02-15T17:39:32.481Z,21.37
2023-02-15T17:42:19.032Z,23.27
2023-02-15T17:45:06.525Z,26.37
2023-02-15T17:47:54.041Z,20.73
2023-02-15T17:50:40.514Z,28.33
2023-02-15T17:53:29.120Z,26.53
2023-02-15T17:56:15.626Z,20.87
2023-02-15T17:59:02.166Z,18.00
2023-02-15T18:01:48.682Z,17.13
2023-02-15T18:04:35.267Z,21.57
2023-02-15T18:07:21.749Z,29.20
2023-02-15T18:10:09.258Z,31.07
2023-02-15T18:12:57.756Z,34.17
2023-02-15T18:15:44.273Z,39.87
2023-02-15T18:18:30.792Z,21.83
2023-02-15T18:21:17.312Z,16.30
2023-02-15T18:24:03.835Z,20.67
2023-02-15T18:26:50.482Z,13.07
2023-02-15T18:29:36.999Z,11.80
2023-02-15T18:32:23.592Z,16.63
2023-02-15T18:35:10.146Z,13.37
2023-02-15T18:37:56.660Z,12.07
2023-02-15T18:40:44.194Z,13.43
2023-02-15T18:43:32.748Z,19.30
2023-02-15T18:46:19.324Z,19.07
2023-02-15T18:49:05.810Z,18.73
2023-02-15T18:51:53.322Z,30.83
2023-02-15T18:54:39.810Z,43.90
2023-02-15T18:57:26.317Z,31.67
2023-02-15T19:00:12.848Z,20.10
2023-02-15T19:02:59.402Z,18.20
2023-02-15T19:05:45.887Z,13.60
2023-02-15T19:08:32.541Z,13.27
2023-02-15T19:11:19.210Z,14.43
2023-02-15T19:14:05.722Z,16.30
2023-02-15T19:16:52.480Z,15.30
2023-02-15T19:19:40.103Z,19.20
2023-02-15T19:22:26.713Z,21.07
2023-02-15T19:25:14.270Z,18.50
2023-02-15T19:28:00.780Z,14.00
2023-02-15T19:30:49.324Z,9.90
2023-02-15T19:33:35.889Z,10.73
2023-02-15T19:36:22.399Z,10.53
2023-02-15T19:39:08.919Z,10.67
2023-02-15T19:41:58.588Z,24.37
2023-02-15T19:44:45.079Z,16.93
2023-02-15T19:47:31.606Z,15.80
2023-02-15T19:50:18.151Z,20.47
2023-02-15T19:53:07.710Z,23.40
2023-02-15T19:55:55.200Z,12.37
2023-02-15T19:58:41.741Z,12.43
2023-02-15T20:01:28.496Z,14.40
2023-02-15T20:04:15.183Z,12.03
2023-02-15T20:07:01.692Z,13.23
2023-02-15T20:09:49.227Z,17.07
2023-02-15T20:12:35.782Z,16.03
2023-02-15T20:15:22.318Z,19.10
2023-02-15T20:18:08.849Z,21.67
2023-02-15T20:20:55.464Z,16.07
2023-02-15T20:23:42.093Z,12.47
2023-02-15T20:26:28.620Z,12.30
2023-02-15T20:29:15.121Z,9.63
2023-02-15T20:32:01.853Z,10.77
2023-02-15T20:34:48.454Z,9.97
2023-02-15T20:37:34.974Z,9.07
2023-02-15T20:40:21.533Z,13.13
2023-02-15T20:43:08.060Z,14.47
2023-02-15T20:45:54.670Z,10.87
2023-02-15T20:48:41.181Z,10.53
2023-02-15T20:51:28.756Z,12.07
2023-02-15T20:54:16.310Z,11.07
2023-02-15T20:57:02.854Z,14.13
2023-02-15T20:59:51.339Z,13.20
2023-02-15T21:02:37.875Z,10.83
2023-02-15T21:05:24.403Z,15.83
2023-02-15T21:08:11.891Z,15.50
2023-02-15T21:11:01.445Z,10.73
2023-02-15T21:13:48.272Z,13.37
2023-02-15T21:16:34.866Z,11.53
2023-02-15T21:19:21.405Z,11.20
2023-02-15T21:22:08.935Z,13.57
2023-02-15T21:24:55.421Z,13.13
2023-02-15T21:27:41.951Z,12.17
2023-02-15T21:30:28.494Z,13.67
2023-02-15T21:33:16.028Z,12.30
2023-02-15T21:36:02.535Z,9.33
2023-02-15T21:38:49.072Z,9.37
2023-02-15T21:41:35.556Z,8.90
2023-02-15T21:44:23.076Z,8.23
2023-02-15T21:47:10.602Z,7.77
2023-02-15T21:49:57.123Z,7.50
2023-02-15T21:52:43.664Z,7.87
2023-02-15T21:55:30.149Z,8.93
2023-02-15T21:58:16.642Z,8.30
2023-02-15T22:01:03.542Z,8.93
2023-02-15T22:03:51.341Z,7.37
2023-02-15T22:06:39.825Z,8.07
2023-02-15T22:09:26.369Z,7.50
2023-02-15T22:12:14.845Z,8.13
2023-02-15T22:15:01.387Z,8.00
2023-02-15T22:17:47.868Z,9.43
2023-02-15T22:20:34.497Z,7.53
2023-02-15T22:23:21.016Z,7.60
2023-02-15T22:26:08.527Z,7.97
2023-02-15T22:28:55.002Z,9.13
2023-02-15T22:31:41.610Z,8.73
2023-02-15T22:34:28.185Z,9.87
2023-02-15T22:37:15.736Z,8.90
2023-02-15T22:40:02.264Z,9.20
2023-02-15T22:42:48.759Z,8.60
2023-02-15T22:45:37.305Z,9.00
2023-02-15T22:48:24.861Z,8.70
2023-02-15T22:51:11.347Z,7.63
2023-02-15T22:53:58.866Z,8.13
2023-02-15T22:56:45.374Z,7.67
2023-02-15T22:59:31.859Z,8.47
2023-02-15T23:02:20.635Z,7.63
2023-02-15T23:05:07.178Z,8.07
2023-02-15T23:07:53.753Z,7.60
2023-02-15T23:10:40.272Z,8.30
2023-02-15T23:13:26.773Z,8.60
2023-02-15T23:16:13.311Z,8.03
2023-02-15T23:18:59.818Z,8.70
2023-02-15T23:21:46.311Z,7.17
2023-02-15T23:24:32.794Z,7.90
2023-02-15T23:27:19.274Z,7.90
2023-02-15T23:30:05.801Z,8.30
2023-02-15T23:32:52.302Z,7.83
2023-02-15T23:35:39.814Z,7.63
2023-02-15T23:38:26.297Z,7.80
2023-02-15T23:41:13.844Z,7.43
2023-02-15T23:44:00.360Z,7.53
2023-02-15T23:46:46.966Z,8.00
2023-02-15T23:49:33.491Z,8.63
2023-02-15T23:52:20.098Z,8.53
2023-02-15T23:57:55.978Z,7.77
